createdAt,value
2018-11-27T00:00:23.151Z,88.10
2018-11-27T00:02:54.059Z,87.90
2018-11-27T00:05:22.877Z,87.90
2018-11-27T00:07:51.141Z,87.30
2018-11-27T00:10:19.445Z,87.80
2018-11-27T00:12:47.645Z,87.80
2018-11-27T00:15:15.906Z,87.70
2018-11-27T00:17:44.178Z,87.90
2018-11-27T00:20:13.381Z,87.90
2018-11-27T00:22:41.752Z,87.90
2018-11-27T00:25:11.309Z,87.90
2018-11-27T00:27:39.553Z,87.90
2018-11-27T00:30:10.938Z,88.00
2018-11-27T00:32:39.269Z,88.00
2018-11-27T00:35:09.777Z,87.50
2018-11-27T00:37:38.277Z,87.80
2018-11-27T00:40:14.880Z,87.60
2018-11-27T00:42:43.154Z,87.30
2018-11-27T00:45:12.529Z,87.70
2018-11-27T00:47:41.131Z,87.50
2018-11-27T00:50:11.836Z,87.80
2018-11-27T00:52:40.101Z,87.40
2018-11-27T00:55:11.395Z,87.40
2018-11-27T00:57:40.320Z,87.40
2018-11-27T01:00:24.458Z,87.60
2018-11-27T01:02:52.852Z,88.10
2018-11-27T01:05:22.381Z,87.90
2018-11-27T01:07:50.962Z,88.00
2018-11-27T01:10:24.016Z,88.20
2018-11-27T01:12:52.477Z,87.60
2018-11-27T01:15:20.754Z,87.60
2018-11-27T01:17:50.220Z,87.40
2018-11-27T01:20:19.975Z,87.50
2018-11-27T01:22:48.433Z,87.50
2018-11-27T01:25:16.786Z,88.00
2018-11-27T01:27:45.113Z,88.00
2018-11-27T01:30:14.411Z,87.90
2018-11-27T01:32:42.752Z,88.10
2018-11-27T01:35:15.050Z,87.80
2018-11-27T01:37:43.354Z,88.00
2018-11-27T01:40:16.858Z,88.00
2018-11-27T01:42:45.517Z,87.50
2018-11-27T01:45:14.715Z,87.70
2018-11-27T01:47:42.908Z,87.80
2018-11-27T01:50:12.229Z,87.50
2018-11-27T01:52:40.557Z,87.50
2018-11-27T01:55:10.058Z,87.30
2018-11-27T01:57:38.864Z,87.70
2018-11-27T02:00:10.623Z,87.60
2018-11-27T02:02:38.961Z,87.30
2018-11-27T02:05:08.150Z,87.40
2018-11-27T02:07:36.450Z,87.70
2018-11-27T02:10:08.417Z,87.70
2018-11-27T02:12:36.967Z,87.60
2018-11-27T02:15:08.019Z,87.60
2018-11-27T02:17:37.306Z,87.50
2018-11-27T02:20:07.158Z,87.60
2018-11-27T02:22:35.362Z,87.80
2018-11-27T02:25:04.269Z,87.70
2018-11-27T02:27:33.127Z,87.60
2018-11-27T02:30:01.562Z,87.60
2018-11-27T02:32:29.872Z,87.60
2018-11-27T02:34:58.159Z,87.80
2018-11-27T02:37:26.443Z,87.80
2018-11-27T02:39:54.766Z,88.10
2018-11-27T02:42:23.075Z,88.00
2018-11-27T02:44:51.335Z,87.90
2018-11-27T02:47:21.663Z,87.90
2018-11-27T02:49:49.917Z,88.20
2018-11-27T02:52:18.262Z,88.10
2018-11-27T02:54:46.477Z,88.00
2018-11-27T02:57:14.734Z,88.00
2018-11-27T02:59:43.909Z,88.30
2018-11-27T03:02:12.201Z,88.50
2018-11-27T03:04:41.052Z,88.60
2018-11-27T03:07:09.320Z,88.50
2018-11-27T03:09:37.658Z,88.60
2018-11-27T03:12:06.041Z,88.70
2018-11-27T03:14:34.300Z,88.60
2018-11-27T03:17:02.630Z,88.50
2018-11-27T03:19:30.877Z,88.40
2018-11-27T03:21:59.142Z,88.60
2018-11-27T03:24:28.053Z,88.70
2018-11-27T03:26:56.331Z,88.40
2018-11-27T03:29:24.616Z,88.50
2018-11-27T03:31:53.442Z,88.40
2018-11-27T03:34:21.693Z,88.40
2018-11-27T03:36:49.937Z,88.30
2018-11-27T03:39:18.253Z,88.40
2018-11-27T03:41:46.570Z,88.20
2018-11-27T03:44:14.838Z,88.50
2018-11-27T03:46:43.142Z,88.60
2018-11-27T03:49:11.500Z,88.40
2018-11-27T03:51:40.433Z,88.30
2018-11-27T03:54:08.674Z,88.40
2018-11-27T03:56:37.646Z,88.80
2018-11-27T03:59:06.310Z,88.40
2018-11-27T04:01:34.901Z,88.20
2018-11-27T04:04:21.960Z,88.50
2018-11-27T04:06:50.222Z,88.70
2018-11-27T04:09:18.477Z,88.50
2018-11-27T04:11:46.937Z,88.50
2018-11-27T04:14:15.180Z,88.80
2018-11-27T04:16:43.528Z,88.60
2018-11-27T04:19:11.806Z,88.30
2018-11-27T04:21:40.150Z,88.70
2018-11-27T04:24:08.394Z,88.60
2018-11-27T04:26:36.721Z,88.40
2018-11-27T04:29:05.180Z,88.60
2018-11-27T04:31:33.518Z,88.50
2018-11-27T04:34:01.826Z,88.70
2018-11-27T04:36:30.023Z,89.00
2018-11-27T04:38:58.302Z,89.30
2018-11-27T04:41:26.561Z,89.10
2018-11-27T04:43:54.873Z,89.00
2018-11-27T04:46:23.729Z,88.90
2018-11-27T04:48:52.041Z,88.80
2018-11-27T04:51:20.318Z,88.80
2018-11-27T04:53:48.542Z,89.00
2018-11-27T04:56:16.885Z,89.10
2018-11-27T04:58:45.162Z,88.90
2018-11-27T05:01:13.990Z,89.00
2018-11-27T05:03:42.337Z,88.60
2018-11-27T05:06:10.631Z,88.80
2018-11-27T05:08:38.915Z,89.30
2018-11-27T05:11:08.143Z,88.90
2018-11-27T05:13:36.381Z,89.10
2018-11-27T05:16:05.510Z,89.40
2018-11-27T05:18:33.930Z,89.30
2018-11-27T05:21:02.189Z,89.10
2018-11-27T05:23:30.496Z,89.00
2018-11-27T05:25:58.773Z,89.20
2018-11-27T05:28:27.171Z,89.30
2018-11-27T05:30:55.432Z,89.30
2018-11-27T05:33:23.755Z,90.50
2018-11-27T05:35:52.029Z,91.50
2018-11-27T05:38:21.046Z,90.60
2018-11-27T05:40:49.301Z,91.10
2018-11-27T05:43:18.278Z,90.50
2018-11-27T05:45:46.505Z,89.50
2018-11-27T05:48:14.756Z,90.20
2018-11-27T05:50:42.976Z,89.60
2018-11-27T05:53:11.317Z,89.70
2018-11-27T05:55:39.641Z,89.70
2018-11-27T05:58:07.986Z,89.50
2018-11-27T06:00:36.547Z,89.10
2018-11-27T06:03:06.944Z,89.70
2018-11-27T06:05:35.413Z,90.00
2018-11-27T06:08:03.709Z,89.80
2018-11-27T06:10:31.963Z,89.60
2018-11-27T06:13:00.291Z,89.40
2018-11-27T06:15:28.569Z,89.70
2018-11-27T06:17:58.198Z,89.40
2018-11-27T06:20:26.486Z,89.40
2018-11-27T06:22:54.985Z,89.30
2018-11-27T06:25:25.417Z,89.20
2018-11-27T06:27:58.631Z,89.00
2018-11-27T06:30:27.743Z,89.00
2018-11-27T06:32:56.025Z,88.80
2018-11-27T06:35:27.401Z,89.00
2018-11-27T06:37:55.722Z,89.10
2018-11-27T06:40:25.393Z,88.90
2018-11-27T06:42:53.870Z,88.60
2018-11-27T06:45:22.377Z,89.20
2018-11-27T06:47:51.651Z,89.10
2018-11-27T06:50:20.714Z,88.50
2018-11-27T06:52:51.220Z,88.60
2018-11-27T06:55:21.352Z,88.50
2018-11-27T06:57:49.697Z,88.70
2018-11-27T07:00:19.747Z,88.60
2018-11-27T07:02:48.078Z,88.70
2018-11-27T07:05:16.429Z,88.00
2018-11-27T07:07:44.741Z,88.50
2018-11-27T07:10:27.597Z,88.60
2018-11-27T07:12:57.416Z,89.10
2018-11-27T07:15:25.741Z,89.20
2018-11-27T07:17:54.496Z,88.40
2018-11-27T07:20:22.708Z,88.30
2018-11-27T07:22:51.004Z,88.40
2018-11-27T07:25:20.230Z,88.50
2018-11-27T07:27:49.753Z,88.60
2018-11-27T07:30:20.361Z,88.40
2018-11-27T07:32:48.238Z,88.70
2018-11-27T07:35:17.186Z,89.00
2018-11-27T07:37:46.533Z,88.70
2018-11-27T07:40:18.261Z,88.80
2018-11-27T07:42:46.701Z,88.30
2018-11-27T07:45:17.054Z,88.90
2018-11-27T07:47:46.402Z,88.60
2018-11-27T07:50:15.303Z,88.40
2018-11-27T07:52:43.599Z,88.60
2018-11-27T07:55:13.645Z,88.70
2018-11-27T07:57:42.010Z,88.60
2018-11-27T08:00:12.647Z,88.50
2018-11-27T08:02:41.142Z,88.00
2018-11-27T08:05:10.745Z,88.50
2018-11-27T08:07:39.394Z,88.00
2018-11-27T08:10:13.482Z,87.80
2018-11-27T08:12:41.886Z,87.90
2018-11-27T08:15:13.433Z,87.50
2018-11-27T08:17:41.929Z,87.50
2018-11-27T08:20:13.405Z,87.60
2018-11-27T08:22:41.865Z,87.80
2018-11-27T08:25:11.401Z,88.30
2018-11-27T08:27:39.658Z,87.70
2018-11-27T08:30:13.064Z,87.40
2018-11-27T08:32:41.268Z,87.50
2018-11-27T08:35:14.630Z,87.50
2018-11-27T08:37:43.131Z,87.30
2018-11-27T08:40:12.389Z,87.70
2018-11-27T08:42:40.771Z,87.70
2018-11-27T08:45:11.589Z,87.00
2018-11-27T08:47:46.925Z,86.50
2018-11-27T08:50:17.298Z,86.50
2018-11-27T08:52:47.761Z,86.70
2018-11-27T08:55:19.433Z,86.50
2018-11-27T08:57:47.873Z,86.10
2018-11-27T09:00:18.345Z,86.10
2018-11-27T09:02:46.755Z,86.30
2018-11-27T09:05:15.167Z,86.10
2018-11-27T09:07:43.859Z,86.70
2018-11-27T09:10:14.213Z,85.60
2018-11-27T09:12:42.498Z,85.60
2018-11-27T09:15:13.156Z,87.10
2018-11-27T09:17:43.482Z,85.50
2018-11-27T09:20:12.304Z,84.80
2018-11-27T09:22:40.554Z,84.50
2018-11-27T09:25:12.260Z,85.00
2018-11-27T09:27:40.494Z,85.40
2018-11-27T09:30:14.954Z,84.40
2018-11-27T09:32:43.232Z,84.10
2018-11-27T09:35:11.717Z,84.80
2018-11-27T09:37:39.977Z,84.40
2018-11-27T09:40:10.954Z,84.30
2018-11-27T09:42:39.269Z,84.30
2018-11-27T09:45:09.786Z,84.40
2018-11-27T09:47:38.073Z,84.10
2018-11-27T09:50:09.159Z,84.80
2018-11-27T09:52:37.437Z,84.20
2018-11-27T09:55:09.760Z,83.30
2018-11-27T09:57:37.994Z,83.50
2018-11-27T10:00:18.075Z,82.90
2018-11-27T10:02:47.063Z,82.90
2018-11-27T10:05:15.799Z,82.60
2018-11-27T10:07:44.051Z,83.00
2018-11-27T10:10:13.813Z,83.00
2018-11-27T10:12:42.084Z,82.80
2018-11-27T10:15:13.782Z,83.50
2018-11-27T10:17:42.095Z,83.40
2018-11-27T10:20:12.469Z,83.00
2018-11-27T10:22:40.793Z,83.70
2018-11-27T10:25:11.030Z,82.80
2018-11-27T10:27:39.518Z,82.90
2018-11-27T10:30:17.047Z,83.00
2018-11-27T10:32:45.433Z,83.00
2018-11-27T10:35:19.995Z,83.20
2018-11-27T10:37:48.190Z,83.20
2018-11-27T10:40:16.453Z,83.20
2018-11-27T10:42:45.143Z,83.50
2018-11-27T10:45:15.392Z,83.50
2018-11-27T10:47:44.318Z,84.10
2018-11-27T10:50:13.545Z,83.80
2018-11-27T10:52:42.963Z,84.10
2018-11-27T10:55:12.502Z,84.20
2018-11-27T10:57:41.389Z,83.90
2018-11-27T11:00:23.892Z,83.90
2018-11-27T11:02:57.789Z,84.00
2018-11-27T11:05:34.105Z,84.20
2018-11-27T11:08:02.384Z,84.10
2018-11-27T11:10:31.113Z,84.10
2018-11-27T11:12:59.982Z,84.40
2018-11-27T11:15:28.251Z,83.70
2018-11-27T11:17:57.477Z,83.90
2018-11-27T11:20:25.881Z,83.40
2018-11-27T11:22:54.834Z,83.50
2018-11-27T11:25:24.349Z,84.00
2018-11-27T11:27:57.499Z,83.60
2018-11-27T11:30:25.822Z,84.00
2018-11-27T11:32:54.118Z,84.60
2018-11-27T11:35:23.031Z,85.20
2018-11-27T11:37:52.078Z,83.50
2018-11-27T11:40:21.653Z,83.30
2018-11-27T11:42:51.240Z,85.00
2018-11-27T11:45:19.628Z,84.60
2018-11-27T11:47:47.841Z,83.80
2018-11-27T11:50:21.125Z,84.00
2018-11-27T11:52:52.877Z,83.60
2018-11-27T11:55:21.777Z,84.10
2018-11-27T11:57:50.389Z,84.00
2018-11-27T12:00:22.978Z,86.10
2018-11-27T12:02:51.266Z,84.80
2018-11-27T12:05:24.872Z,84.80
2018-11-27T12:07:47.829Z,85.00
2018-11-27T12:10:16.721Z,85.40
2018-11-27T12:12:46.046Z,85.50
2018-11-27T12:15:15.365Z,85.20
2018-11-27T12:17:44.178Z,85.60
2018-11-27T12:20:14.469Z,86.30
2018-11-27T12:22:43.939Z,87.40
2018-11-27T12:25:13.058Z,88.10
2018-11-27T12:27:41.418Z,88.40
2018-11-27T12:30:12.085Z,89.50
2018-11-27T12:32:40.475Z,90.40
2018-11-27T12:35:10.322Z,90.70
2018-11-27T12:37:38.586Z,91.10
2018-11-27T12:40:15.998Z,91.90
2018-11-27T12:42:44.320Z,91.90
2018-11-27T12:45:16.581Z,91.90
2018-11-27T12:47:45.207Z,91.90
2018-11-27T12:50:14.687Z,91.90
2018-11-27T12:52:43.397Z,91.90
2018-11-27T12:55:13.745Z,91.90
2018-11-27T12:57:42.697Z,91.90
2018-11-27T13:00:13.656Z,91.90
2018-11-27T13:02:42.386Z,91.90
2018-11-27T13:05:12.112Z,91.90
2018-11-27T13:07:40.443Z,91.90
2018-11-27T13:10:11.957Z,91.90
2018-11-27T13:12:40.309Z,91.50
2018-11-27T13:15:11.222Z,91.90
2018-11-27T13:17:40.910Z,91.90
2018-11-27T13:20:11.245Z,91.90
2018-11-27T13:22:39.601Z,91.80
2018-11-27T13:25:10.761Z,91.90
2018-11-27T13:27:39.014Z,91.70
2018-11-27T13:30:11.947Z,91.90
2018-11-27T13:32:40.249Z,91.90
2018-11-27T13:35:10.633Z,91.80
2018-11-27T13:37:38.901Z,91.50
2018-11-27T13:40:08.830Z,91.90
2018-11-27T13:42:37.090Z,91.90
2018-11-27T13:45:08.341Z,91.90
2018-11-27T13:47:36.573Z,91.90
2018-11-27T13:50:05.977Z,91.90
2018-11-27T13:52:34.221Z,91.90
2018-11-27T13:55:02.494Z,91.90
2018-11-27T13:57:30.741Z,91.90
2018-11-27T13:59:59.022Z,91.90
2018-11-27T14:02:27.249Z,91.90
2018-11-27T14:04:56.051Z,91.90
2018-11-27T14:07:24.313Z,91.90
2018-11-27T14:09:52.642Z,91.90
2018-11-27T14:12:20.910Z,91.90
2018-11-27T14:14:49.166Z,91.90
2018-11-27T14:17:17.602Z,91.90
2018-11-27T14:19:45.853Z,91.90
2018-11-27T14:22:14.106Z,91.90
2018-11-27T14:24:42.365Z,91.90
2018-11-27T14:27:11.005Z,91.90
2018-11-27T14:29:39.403Z,91.90
2018-11-27T14:32:07.630Z,91.90
2018-11-27T14:34:35.878Z,91.90
2018-11-27T14:37:04.129Z,91.90
2018-11-27T14:39:32.339Z,91.90
2018-11-27T14:42:00.577Z,91.90
2018-11-27T14:44:28.822Z,91.90
2018-11-27T14:46:57.777Z,91.90
2018-11-27T14:49:26.033Z,91.90
2018-11-27T14:51:54.265Z,91.90
2018-11-27T14:54:22.504Z,91.90
2018-11-27T14:56:51.398Z,91.90
2018-11-27T14:59:19.697Z,91.90
2018-11-27T15:01:47.937Z,91.90
2018-11-27T15:04:16.217Z,91.90
2018-11-27T15:06:44.453Z,91.90
2018-11-27T15:09:12.901Z,91.90
2018-11-27T15:11:41.137Z,91.90
2018-11-27T15:14:09.418Z,91.90
2018-11-27T15:16:37.672Z,91.90
2018-11-27T15:19:06.555Z,91.90
2018-11-27T15:21:34.835Z,91.90
2018-11-27T15:24:03.068Z,91.90
2018-11-27T15:26:31.276Z,91.90
2018-11-27T15:28:59.513Z,91.90
2018-11-27T15:31:27.856Z,91.90
2018-11-27T15:33:56.141Z,91.90
2018-11-27T15:36:24.401Z,91.90
2018-11-27T15:38:52.727Z,91.90
2018-11-27T15:41:21.041Z,91.90
2018-11-27T15:43:49.413Z,91.90
2018-11-27T15:46:17.564Z,91.90
2018-11-27T15:48:45.778Z,91.90
2018-11-27T15:51:14.079Z,91.90
2018-11-27T15:53:43.272Z,91.90
2018-11-27T15:56:11.626Z,91.90
2018-11-27T15:58:40.813Z,91.90
2018-11-27T16:01:09.297Z,91.90
2018-11-27T16:03:37.722Z,91.90
2018-11-27T16:06:06.786Z,91.90
2018-11-27T16:08:35.290Z,91.90
2018-11-27T16:11:03.549Z,91.90
2018-11-27T16:13:31.739Z,91.90
2018-11-27T16:15:59.978Z,91.90
2018-11-27T16:18:28.261Z,91.90
2018-11-27T16:20:57.337Z,91.90
2018-11-27T16:23:25.605Z,91.90
2018-11-27T16:25:54.531Z,91.90
2018-11-27T16:28:22.962Z,91.90
2018-11-27T16:30:51.361Z,91.90
2018-11-27T16:33:19.626Z,91.90
2018-11-27T16:35:47.860Z,91.90
2018-11-27T16:38:17.089Z,91.90
2018-11-27T16:40:45.336Z,91.90
2018-11-27T16:43:14.530Z,91.90
2018-11-27T16:45:42.738Z,91.90
2018-11-27T16:48:11.041Z,91.90
2018-11-27T16:50:39.297Z,91.90
2018-11-27T16:53:07.541Z,91.90
2018-11-27T16:55:35.793Z,91.90
2018-11-27T16:58:04.103Z,91.90
2018-11-27T17:00:34.373Z,91.90
2018-11-27T17:03:03.737Z,91.90
2018-11-27T17:05:33.880Z,91.70
2018-11-27T17:08:02.257Z,91.90
2018-11-27T17:10:30.566Z,91.90
2018-11-27T17:12:59.022Z,91.80
2018-11-27T17:15:28.010Z,91.70
2018-11-27T17:17:57.160Z,91.90
2018-11-27T17:20:29.469Z,91.60
2018-11-27T17:22:59.906Z,91.90
2018-11-27T17:25:28.154Z,91.60
2018-11-27T17:28:29.217Z,91.90
2018-11-27T17:31:04.977Z,91.80
2018-11-27T17:33:37.971Z,91.60
2018-11-27T17:36:08.198Z,91.90
2018-11-27T17:38:37.333Z,91.80
2018-11-27T17:41:06.487Z,91.80
2018-11-27T17:43:35.509Z,91.90
2018-11-27T17:46:04.356Z,91.90
2018-11-27T17:48:32.601Z,91.80
2018-11-27T17:51:00.805Z,91.70
2018-11-27T17:53:29.083Z,91.60
2018-11-27T17:55:57.373Z,91.70
2018-11-27T17:58:25.661Z,91.60
2018-11-27T18:00:53.872Z,91.70
2018-11-27T18:03:22.119Z,91.20
2018-11-27T18:05:50.313Z,91.40
2018-11-27T18:08:18.593Z,91.60
2018-11-27T18:10:46.953Z,91.80
2018-11-27T18:13:15.699Z,91.90
2018-11-27T18:15:44.038Z,91.90
2018-11-27T18:18:12.457Z,91.80
2018-11-27T18:20:40.669Z,91.60
2018-11-27T18:23:08.892Z,91.60
2018-11-27T18:25:37.116Z,91.90
2018-11-27T18:28:05.536Z,91.90
2018-11-27T18:30:34.973Z,91.90
2018-11-27T18:33:03.594Z,91.90
2018-11-27T18:35:31.837Z,91.90
2018-11-27T18:38:01.301Z,91.90
2018-11-27T18:40:29.549Z,91.90
2018-11-27T18:42:57.945Z,91.90
2018-11-27T18:45:28.786Z,91.90
2018-11-27T18:47:57.165Z,91.90
2018-11-27T18:50:26.553Z,91.90
2018-11-27T18:52:55.194Z,91.90
2018-11-27T18:55:23.552Z,91.90
2018-11-27T18:57:51.874Z,91.90
2018-11-27T19:00:22.437Z,91.90
2018-11-27T19:02:50.725Z,91.90
2018-11-27T19:05:19.464Z,91.90
2018-11-27T19:07:47.752Z,91.90
2018-11-27T19:10:25.882Z,91.90
2018-11-27T19:12:54.175Z,91.90
2018-11-27T19:15:31.026Z,91.90
2018-11-27T19:18:00.943Z,91.90
2018-11-27T19:20:29.507Z,91.90
2018-11-27T19:22:58.035Z,91.90
2018-11-27T19:25:27.017Z,91.90
2018-11-27T19:27:55.309Z,91.90
2018-11-27T19:30:24.806Z,91.90
2018-11-27T19:32:53.117Z,91.90
2018-11-27T19:35:25.324Z,91.90
2018-11-27T19:37:51.413Z,91.90
2018-11-27T19:40:20.094Z,91.90
2018-11-27T19:42:48.389Z,91.90
2018-11-27T19:45:19.181Z,91.90
2018-11-27T19:47:47.674Z,91.90
2018-11-27T19:50:16.001Z,91.90
2018-11-27T19:52:45.984Z,91.90
2018-11-27T19:55:15.814Z,91.90
2018-11-27T19:57:44.036Z,91.90
2018-11-27T20:00:19.973Z,91.90
2018-11-27T20:02:48.248Z,91.90
2018-11-27T20:05:18.613Z,91.90
2018-11-27T20:07:47.187Z,91.90
2018-11-27T20:10:15.849Z,91.90
2018-11-27T20:12:44.211Z,91.90
2018-11-27T20:15:13.900Z,91.90
2018-11-27T20:17:43.136Z,91.90
2018-11-27T20:20:12.627Z,91.90
2018-11-27T20:22:41.336Z,91.90
2018-11-27T20:25:11.968Z,91.90
2018-11-27T20:27:40.529Z,91.90
2018-11-27T20:30:14.685Z,91.90
2018-11-27T20:32:44.228Z,91.90
2018-11-27T20:35:13.745Z,91.90
2018-11-27T20:37:42.164Z,91.90
2018-11-27T20:40:12.517Z,91.90
2018-11-27T20:42:40.864Z,91.90
2018-11-27T20:45:19.141Z,91.90
2018-11-27T20:47:41.556Z,91.90
2018-11-27T20:50:12.524Z,91.90
2018-11-27T20:52:41.017Z,91.90
2018-11-27T20:55:09.373Z,91.90
2018-11-27T20:57:37.920Z,91.90
2018-11-27T21:00:12.076Z,91.90
2018-11-27T21:02:40.415Z,91.90
2018-11-27T21:05:09.155Z,91.90
2018-11-27T21:07:37.459Z,91.90
2018-11-27T21:10:10.244Z,91.90
2018-11-27T21:12:38.852Z,91.90
2018-11-27T21:15:10.001Z,91.90
2018-11-27T21:17:38.370Z,90.30
2018-11-27T21:20:08.653Z,89.70
2018-11-27T21:22:36.984Z,89.20
2018-11-27T21:25:08.953Z,89.10
2018-11-27T21:27:37.544Z,88.90
2018-11-27T21:30:11.933Z,88.50
2018-11-27T21:32:40.542Z,88.10
2018-11-27T21:35:10.394Z,88.10
2018-11-27T21:37:38.814Z,87.90
2018-11-27T21:40:10.462Z,87.70
2018-11-27T21:42:38.775Z,87.40
2018-11-27T21:45:17.277Z,87.50
2018-11-27T21:47:46.582Z,87.40
2018-11-27T21:50:17.123Z,86.80
2018-11-27T21:52:45.573Z,86.70
2018-11-27T21:55:14.622Z,86.30
2018-11-27T21:57:43.193Z,86.90
2018-11-27T22:00:14.147Z,87.00
2018-11-27T22:02:42.432Z,87.30
2018-11-27T22:05:11.289Z,87.20
2018-11-27T22:07:39.674Z,86.60
2018-11-27T22:10:11.082Z,86.40
2018-11-27T22:12:39.690Z,88.80
2018-11-27T22:15:10.773Z,89.90
2018-11-27T22:17:39.063Z,91.10
2018-11-27T22:20:09.414Z,91.70
2018-11-27T22:22:38.222Z,91.90
2018-11-27T22:25:07.860Z,91.90
2018-11-27T22:27:36.456Z,91.90
2018-11-27T22:30:20.697Z,91.90
2018-11-27T22:32:50.157Z,91.90
2018-11-27T22:35:18.523Z,91.90
2018-11-27T22:37:46.798Z,91.90
2018-11-27T22:40:16.161Z,91.80
2018-11-27T22:42:45.162Z,91.90
2018-11-27T22:45:14.749Z,91.70
2018-11-27T22:47:43.162Z,91.90
2018-11-27T22:50:14.345Z,91.90
2018-11-27T22:52:42.829Z,91.90
2018-11-27T22:55:11.445Z,91.90
2018-11-27T22:57:39.799Z,91.80
2018-11-27T23:00:27.402Z,91.90
2018-11-27T23:02:55.883Z,91.40
2018-11-27T23:05:24.277Z,91.50
2018-11-27T23:07:52.528Z,91.40
2018-11-27T23:10:20.764Z,91.70
2018-11-27T23:12:49.001Z,91.80
2018-11-27T23:15:18.503Z,91.80
2018-11-27T23:17:47.049Z,91.60
2018-11-27T23:20:16.549Z,91.70
2018-11-27T23:22:45.069Z,91.80
2018-11-27T23:25:16.204Z,91.80
2018-11-27T23:27:44.639Z,91.70
2018-11-27T23:30:15.224Z,91.90
2018-11-27T23:32:43.683Z,91.70
2018-11-27T23:35:12.330Z,91.90
2018-11-27T23:37:40.731Z,91.90
2018-11-27T23:40:11.845Z,91.90
2018-11-27T23:42:40.426Z,91.90
2018-11-27T23:45:13.584Z,91.90
2018-11-27T23:47:41.831Z,91.90
2018-11-27T23:50:11.811Z,91.90
2018-11-27T23:52:40.055Z,91.90
2018-11-27T23:55:10.147Z,91.90
2018-11-27T23:57:39.457Z,91.90
